createdAt,value
2022-11-15T00:02:02.317Z,23.80
2022-11-15T00:34:00.589Z,23.80
2022-11-15T00:37:24.621Z,23.80
2022-11-15T01:45:40.919Z,23.70
2022-11-15T01:49:11.012Z,23.70
2022-11-15T01:52:40.973Z,23.70
2022-11-15T01:56:06.283Z,23.70
2022-11-15T01:59:41.029Z,23.70
2022-11-15T02:03:23.060Z,23.70
2022-11-15T02:06:47.163Z,23.70
2022-11-15T02:10:11.130Z,23.70
2022-11-15T02:13:41.212Z,23.70
2022-11-15T02:17:06.460Z,23.70
2022-11-15T02:21:06.491Z,23.70
2022-11-15T02:24:59.261Z,23.70
2022-11-15T02:28:47.298Z,23.70
2022-11-15T02:32:29.326Z,23.70
2022-11-15T02:36:02.067Z,23.70
2022-11-15T02:39:35.390Z,23.70
2022-11-15T02:43:08.434Z,23.70
2022-11-15T02:46:54.737Z,23.70
2022-11-15T02:50:29.474Z,23.70
2022-11-15T02:53:59.503Z,23.70
2022-11-15T02:57:29.544Z,23.70
2022-11-15T03:00:59.621Z,23.70
2022-11-15T03:04:41.643Z,23.70
2022-11-15T03:08:06.921Z,23.60
2022-11-15T03:11:41.676Z,23.70
2022-11-15T03:15:06.984Z,23.70
2022-11-15T03:18:35.713Z,23.70
2022-11-15T03:22:07.038Z,23.60
2022-11-15T03:25:41.785Z,23.70
2022-11-15T03:29:07.092Z,23.70
2022-11-15T03:32:41.846Z,23.70
2022-11-15T03:36:07.153Z,23.70
2022-11-15T03:39:41.902Z,23.70
2022-11-15T03:43:23.933Z,23.70
2022-11-15T03:46:59.961Z,23.60
2022-11-15T03:50:29.993Z,23.60
2022-11-15T03:54:00.025Z,23.60
2022-11-15T03:57:18.048Z,23.60
2022-11-15T04:00:54.120Z,23.60
2022-11-15T04:04:18.124Z,23.60
2022-11-15T04:07:48.155Z,23.60
2022-11-15T04:11:13.448Z,23.70
2022-11-15T04:14:42.213Z,23.80
2022-11-15T04:22:00.270Z,23.90
2022-11-15T04:25:26.249Z,24.00
2022-11-15T05:17:20.994Z,24.20
2022-11-15T05:28:18.840Z,24.20
2022-11-15T05:31:45.782Z,24.20
2022-11-15T05:35:00.940Z,24.20
2022-11-15T05:38:22.545Z,24.20
2022-11-15T05:41:45.844Z,24.10
2022-11-15T06:01:51.125Z,24.10
2022-11-15T06:04:42.671Z,24.10
2022-11-15T06:16:15.861Z,24.10
2022-11-15T06:19:38.085Z,24.20
2022-11-15T06:22:55.522Z,24.20
2022-11-15T06:26:10.729Z,24.10
2022-11-15T06:29:12.692Z,24.20
2022-11-15T06:32:37.348Z,24.20
2022-11-15T06:35:54.529Z,24.20
2022-11-15T06:39:01.410Z,24.10
2022-11-15T06:42:25.439Z,24.10
2022-11-15T06:45:37.473Z,24.20
2022-11-15T06:48:35.160Z,24.10
2022-11-15T06:51:24.693Z,24.20
2022-11-15T06:54:33.471Z,24.20
2022-11-15T06:57:55.589Z,24.20
2022-11-15T07:01:00.220Z,24.30
2022-11-15T07:04:00.235Z,24.30
2022-11-15T07:07:01.785Z,24.40
2022-11-15T07:10:31.702Z,24.40
2022-11-15T07:13:16.383Z,24.40
2022-11-15T07:16:18.431Z,24.40
2022-11-15T07:19:29.332Z,24.50
2022-11-15T07:22:31.819Z,24.50
2022-11-15T07:25:31.851Z,24.50
2022-11-15T07:28:34.520Z,24.60
2022-11-15T07:31:47.875Z,24.60
2022-11-15T07:34:30.161Z,24.60
2022-11-15T07:37:13.989Z,24.60
2022-11-15T07:40:33.111Z,24.50
2022-11-15T07:43:17.133Z,24.50
2022-11-15T07:50:22.700Z,24.50
2022-11-15T07:53:21.132Z,24.60
2022-11-15T07:56:20.228Z,24.50
2022-11-15T07:59:39.207Z,24.60
2022-11-15T08:02:30.292Z,24.60
2022-11-15T08:05:56.226Z,24.60
2022-11-15T08:09:14.260Z,24.60
2022-11-15T08:12:20.307Z,24.60
2022-11-15T08:15:04.961Z,24.80
2022-11-15T08:17:52.154Z,24.80
2022-11-15T08:20:41.641Z,24.80
2022-11-15T08:23:48.439Z,24.80
2022-11-15T08:26:35.073Z,24.80
2022-11-15T08:29:23.110Z,24.80
2022-11-15T08:32:28.749Z,24.80
2022-11-15T08:35:27.666Z,24.80
2022-11-15T08:38:29.365Z,24.80
2022-11-15T08:41:46.031Z,24.90
2022-11-15T08:44:26.561Z,24.90
2022-11-15T08:47:11.278Z,24.90
2022-11-15T08:50:21.773Z,24.90
2022-11-15T08:53:22.204Z,24.90
2022-11-15T08:56:47.368Z,24.90
2022-11-15T08:59:50.393Z,25.00
2022-11-15T09:03:09.083Z,25.00
2022-11-15T09:05:58.293Z,25.00
2022-11-15T09:08:47.403Z,25.00
2022-11-15T09:11:42.486Z,25.00
2022-11-15T09:14:36.511Z,25.00
2022-11-15T09:17:30.537Z,25.00
2022-11-15T09:20:19.255Z,25.00
2022-11-15T09:23:07.929Z,25.00
2022-11-15T09:26:29.812Z,25.00
2022-11-15T09:29:10.833Z,25.10
2022-11-15T09:32:08.015Z,25.00
2022-11-15T09:35:08.044Z,25.10
2022-11-15T09:38:13.305Z,25.10
2022-11-15T09:41:48.193Z,25.10
2022-11-15T09:45:23.942Z,25.10
2022-11-15T09:49:21.959Z,25.00
2022-11-15T09:52:32.196Z,25.10
2022-11-15T09:55:46.782Z,25.20
2022-11-15T09:59:20.267Z,25.20
2022-11-15T10:03:11.072Z,25.20
2022-11-15T10:06:44.330Z,25.20
2022-11-15T10:10:17.586Z,25.20
2022-11-15T10:16:55.348Z,25.20
2022-11-15T10:19:54.635Z,25.20
2022-11-15T10:23:27.886Z,25.20
2022-11-15T10:26:09.638Z,25.20
2022-11-15T10:28:55.715Z,25.20
2022-11-15T10:31:50.641Z,25.30
2022-11-15T10:34:56.225Z,25.30
2022-11-15T10:37:52.893Z,25.30
2022-11-15T10:42:21.521Z,25.20
2022-11-15T10:49:42.494Z,25.10
2022-11-15T10:56:32.096Z,25.10
2022-11-15T11:00:13.204Z,25.20
2022-11-15T11:03:56.486Z,25.20
2022-11-15T11:07:06.888Z,25.20
2022-11-15T11:10:22.788Z,25.20
2022-11-15T11:14:12.242Z,25.20
2022-11-15T11:17:20.733Z,25.20
2022-11-15T11:20:54.294Z,25.20
2022-11-15T11:24:32.688Z,25.20
2022-11-15T11:27:38.408Z,25.20
2022-11-15T11:30:39.464Z,25.20
2022-11-15T11:33:44.784Z,25.30
2022-11-15T11:37:00.430Z,25.30
2022-11-15T11:40:10.819Z,25.40
2022-11-15T11:43:48.489Z,25.40
2022-11-15T11:46:55.744Z,25.40
2022-11-15T11:49:51.484Z,25.40
2022-11-15T11:52:50.947Z,25.40
2022-11-15T11:55:55.860Z,25.40
2022-11-15T12:03:18.724Z,25.40
2022-11-15T12:06:12.365Z,25.50
2022-11-15T12:09:18.707Z,25.40
2022-11-15T12:12:26.248Z,25.40
2022-11-15T12:15:29.087Z,25.50
2022-11-15T12:18:36.488Z,25.40
2022-11-15T12:21:42.824Z,25.50
2022-11-15T12:24:36.546Z,25.50
2022-11-15T12:28:06.901Z,25.50
2022-11-15T12:31:15.178Z,25.50
2022-11-15T12:34:28.795Z,25.50
2022-11-15T12:38:03.058Z,25.50
2022-11-15T12:41:27.400Z,25.40
2022-11-15T12:44:38.459Z,25.40
2022-11-15T12:47:36.934Z,25.30
2022-11-15T12:51:09.509Z,25.30
2022-11-15T12:54:28.481Z,25.20
2022-11-15T12:57:55.182Z,25.30
2022-11-15T13:01:39.708Z,25.20
2022-11-15T13:05:03.888Z,25.30
2022-11-15T13:08:12.367Z,25.20
2022-11-15T13:16:37.365Z,25.30
2022-11-15T13:19:44.315Z,25.30
2022-11-15T13:22:39.808Z,25.30
2022-11-15T13:25:52.486Z,25.30
2022-11-15T13:28:51.988Z,25.30
2022-11-15T13:31:51.195Z,25.20
2022-11-15T13:35:06.723Z,25.30
2022-11-15T14:06:55.814Z,25.20
2022-11-15T14:10:13.839Z,25.10
2022-11-15T14:13:14.870Z,25.10
2022-11-15T14:16:01.897Z,25.20
2022-11-15T14:19:16.339Z,25.10
2022-11-15T14:22:33.245Z,25.10
2022-11-15T14:26:02.003Z,25.10
2022-11-15T14:29:20.036Z,25.10
2022-11-15T14:32:28.035Z,25.10
2022-11-15T14:35:40.494Z,25.10
2022-11-15T14:38:56.124Z,25.10
2022-11-15T14:41:51.491Z,25.10
2022-11-15T14:44:46.588Z,25.00
2022-11-15T14:47:43.141Z,24.90
2022-11-15T14:54:05.709Z,25.00
2022-11-15T14:56:45.660Z,24.90
2022-11-15T15:02:42.325Z,24.90
2022-11-15T15:06:35.154Z,24.90
2022-11-15T15:10:42.559Z,24.90
2022-11-15T15:13:33.611Z,24.90
2022-11-15T15:16:58.059Z,24.90
2022-11-15T15:24:22.994Z,24.90
2022-11-15T15:30:52.208Z,24.80
2022-11-15T15:34:05.699Z,24.90
2022-11-15T15:37:45.674Z,24.90
2022-11-15T15:40:55.954Z,24.90
2022-11-15T15:44:39.653Z,24.90
2022-11-15T15:48:16.761Z,24.80
2022-11-15T16:09:08.214Z,24.70
2022-11-15T16:28:49.615Z,24.80
2022-11-15T16:36:38.276Z,24.80
2022-11-15T17:30:07.787Z,24.60
2022-11-15T17:33:55.311Z,24.60
2022-11-15T17:37:24.294Z,24.60
2022-11-15T17:56:56.101Z,24.40
2022-11-15T18:16:44.262Z,24.50
2022-11-15T18:28:02.368Z,24.50
2022-11-15T18:31:47.675Z,24.50
2022-11-15T18:54:20.600Z,24.50
2022-11-15T19:25:56.924Z,24.40
2022-11-15T19:29:50.945Z,24.40
2022-11-15T19:33:25.104Z,24.40
2022-11-15T19:36:52.770Z,24.40
2022-11-15T19:40:21.039Z,24.40
2022-11-15T19:43:51.072Z,24.40
2022-11-15T19:47:33.105Z,24.30
2022-11-15T19:51:03.142Z,24.30
2022-11-15T19:54:33.174Z,24.30
2022-11-15T19:58:03.200Z,24.30
2022-11-15T20:01:33.311Z,24.30
2022-11-15T20:05:11.007Z,24.30
2022-11-15T20:08:45.300Z,24.30
2022-11-15T20:12:09.334Z,24.30
2022-11-15T20:15:39.359Z,24.30
2022-11-15T20:19:03.390Z,24.30
2022-11-15T20:22:20.443Z,24.30
2022-11-15T20:25:33.444Z,24.30
2022-11-15T20:29:03.505Z,24.30
2022-11-15T20:32:27.505Z,24.30
2022-11-15T20:35:53.265Z,24.30
2022-11-15T20:39:30.201Z,24.30
2022-11-15T20:42:57.604Z,24.30
2022-11-15T20:46:27.643Z,24.30
2022-11-15T20:49:53.383Z,24.30
2022-11-15T20:53:21.702Z,24.30
2022-11-15T20:56:53.446Z,24.30
2022-11-15T21:00:15.772Z,24.30
2022-11-15T21:03:45.802Z,24.20
2022-11-15T21:07:15.857Z,24.20
2022-11-15T21:10:45.865Z,24.20
2022-11-15T21:14:15.897Z,24.20
2022-11-15T21:17:45.924Z,24.20
2022-11-15T21:21:09.956Z,24.20
2022-11-15T21:33:07.137Z,24.30
2022-11-15T22:38:06.436Z,24.10
